createdAt,value
2017-12-15T00:02:56.242Z,986.0
2017-12-15T00:13:20.815Z,986.1
2017-12-15T00:23:38.876Z,986.1
2017-12-15T00:33:52.566Z,985.9
2017-12-15T00:44:09.202Z,985.9
2017-12-15T01:04:39.864Z,985.9
2017-12-15T01:15:04.610Z,986.0
2017-12-15T01:25:50.883Z,986.2
2017-12-15T01:36:05.543Z,986.2
2017-12-15T01:46:19.720Z,986.3
2017-12-15T01:56:33.294Z,986.4
2017-12-15T02:06:47.245Z,986.5
2017-12-15T02:17:35.399Z,986.6
2017-12-15T02:27:49.273Z,986.7
2017-12-15T02:38:02.461Z,986.7
2017-12-15T02:48:15.812Z,986.9
2017-12-15T02:58:38.501Z,987.2
2017-12-15T03:08:52.478Z,987.3
2017-12-15T03:19:06.714Z,987.3
2017-12-15T03:29:53.712Z,987.5
2017-12-15T03:40:07.784Z,987.7
2017-12-15T03:50:21.226Z,987.7
2017-12-15T04:00:35.328Z,987.8
2017-12-15T04:10:50.540Z,987.9
2017-12-15T04:21:04.687Z,988.0
2017-12-15T04:31:23.937Z,988.1
2017-12-15T04:41:37.349Z,988.2
2017-12-15T04:51:52.150Z,988.2
2017-12-15T05:02:08.779Z,988.2
2017-12-15T05:12:22.107Z,988.3
2017-12-15T05:22:35.373Z,988.4
2017-12-15T05:32:59.898Z,988.5
2017-12-15T05:43:13.994Z,988.6
2017-12-15T05:53:59.911Z,988.7
2017-12-15T06:04:13.562Z,988.9
2017-12-15T06:14:41.155Z,988.9
2017-12-15T06:24:55.045Z,988.9
2017-12-15T06:35:08.933Z,989.0
2017-12-15T06:45:22.707Z,989.1
2017-12-15T06:55:36.508Z,989.1
2017-12-15T07:05:50.113Z,989.1
2017-12-15T07:16:04.287Z,989.1
2017-12-15T07:26:18.284Z,989.3
2017-12-15T07:37:14.445Z,989.3
2017-12-15T07:47:28.637Z,989.5
2017-12-15T07:57:42.872Z,989.5
2017-12-15T08:07:54.868Z,989.6
2017-12-15T08:18:08.373Z,989.8
2017-12-15T08:28:22.534Z,989.9
2017-12-15T08:39:07.133Z,990.1
2017-12-15T08:49:20.640Z,990.2
2017-12-15T08:59:33.960Z,990.3
2017-12-15T09:09:48.087Z,990.4
2017-12-15T09:20:01.402Z,990.6
2017-12-15T09:30:15.614Z,990.7
2017-12-15T09:40:26.945Z,990.9
2017-12-15T09:50:41.240Z,991.1
2017-12-15T10:00:55.299Z,991.2
2017-12-15T10:11:39.807Z,991.2
2017-12-15T10:22:29.780Z,991.2
2017-12-15T10:32:43.269Z,991.2
2017-12-15T10:42:57.276Z,991.2
2017-12-15T10:53:10.793Z,991.2
2017-12-15T11:03:25.078Z,991.2
2017-12-15T11:13:38.977Z,991.4
2017-12-15T11:23:52.209Z,991.4
2017-12-15T11:34:05.851Z,991.4
2017-12-15T11:44:33.535Z,991.5
2017-12-15T11:54:47.618Z,991.5
2017-12-15T12:05:01.766Z,991.6
2017-12-15T12:15:15.891Z,991.7
2017-12-15T12:25:29.869Z,991.7
2017-12-15T12:35:43.869Z,991.8
2017-12-15T12:45:57.312Z,991.9
2017-12-15T12:56:10.962Z,992.0
2017-12-15T13:06:25.032Z,992.2
2017-12-15T13:16:36.354Z,992.1
2017-12-15T13:26:56.076Z,992.1
2017-12-15T13:39:07.638Z,992.2
2017-12-15T13:51:31.607Z,992.4
2017-12-15T14:02:47.598Z,992.6
2017-12-15T14:13:11.598Z,992.7
2017-12-15T14:35:17.180Z,992.9
2017-12-15T14:46:37.903Z,993.0
2017-12-15T14:57:36.103Z,993.2
2017-12-15T15:09:17.843Z,993.3
2017-12-15T15:20:25.135Z,993.5
2017-12-15T15:31:25.092Z,993.6
2017-12-15T15:53:04.478Z,993.7
2017-12-15T16:14:28.389Z,993.9
2017-12-15T16:25:45.636Z,994.1
2017-12-15T16:36:08.772Z,994.1
2017-12-15T16:47:06.703Z,994.4
2017-12-15T16:57:42.036Z,994.5
2017-12-15T17:08:09.152Z,994.7
2017-12-15T17:30:33.589Z,994.9
2017-12-15T17:40:47.381Z,995.0
2017-12-15T17:50:59.209Z,995.2
2017-12-15T18:01:13.041Z,995.3
2017-12-15T18:11:25.138Z,995.5
2017-12-15T18:21:39.173Z,995.6
2017-12-15T18:31:53.303Z,995.7
2017-12-15T18:42:07.859Z,995.8
2017-12-15T18:52:21.500Z,995.9
2017-12-15T19:03:18.768Z,995.9
2017-12-15T19:13:40.713Z,996.1
2017-12-15T19:24:03.780Z,996.3
2017-12-15T19:34:37.731Z,996.5
2017-12-15T19:45:01.440Z,996.6
2017-12-15T19:55:31.946Z,996.8
2017-12-15T20:06:26.332Z,997.0
2017-12-15T20:17:55.232Z,997.0
2017-12-15T20:29:59.126Z,997.1
2017-12-15T20:40:34.840Z,997.2
2017-12-15T20:50:48.933Z,997.3
2017-12-15T21:01:02.986Z,997.4
2017-12-15T21:11:17.075Z,997.3
2017-12-15T21:21:30.969Z,997.4
2017-12-15T21:31:44.918Z,997.4
2017-12-15T21:42:30.040Z,997.6
2017-12-15T21:52:42.079Z,997.8
2017-12-15T22:02:55.608Z,997.9
2017-12-15T22:13:09.900Z,998.0
2017-12-15T22:23:58.767Z,998.1
2017-12-15T22:34:10.087Z,998.2
2017-12-15T22:44:24.332Z,998.4
2017-12-15T22:54:38.578Z,998.6
2017-12-15T23:04:52.954Z,998.5
2017-12-15T23:15:07.190Z,998.6
2017-12-15T23:25:19.036Z,998.7
2017-12-15T23:35:30.286Z,998.8
2017-12-15T23:46:15.212Z,999.0
2017-12-15T23:56:29.619Z,999.0
